Time;durP1;ratioP1;P1;durP2;ratioP2;P2;SDS_P1;SDS_P2;PMS_P1;PMS_P2;Temp;Humidity;BMP_temperature;BMP_pressure;BME280_temperature;BME280_humidity;BME280_pressure;Samples;Min_cycle;Max_cycle;Signal;HPM_P1;HPM_P2
2021/07/25 00:01:03;;;;;;;11.82;10.40;;;17.90;86.40;;;;;;5032643;29;20081;-72
2021/07/25 00:03:35;;;;;;;11.93;9.52;;;17.90;86.20;;;;;;5031109;29;20741;-72
2021/07/25 00:06:14;;;;;;;11.70;10.68;;;17.90;86.00;;;;;;5032745;29;20152;-71
2021/07/25 00:08:46;;;;;;;11.23;10.20;;;17.90;86.20;;;;;;5031246;29;20103;-71
2021/07/25 00:11:19;;;;;;;11.57;10.57;;;17.90;85.90;;;;;;5032839;29;20900;-72
2021/07/25 00:13:52;;;;;;;11.82;10.65;;;17.90;86.40;;;;;;5037610;29;20132;-71
2021/07/25 00:16:24;;;;;;;11.73;10.55;;;17.90;86.30;;;;;;5030983;29;20081;-71
2021/07/25 00:18:57;;;;;;;11.57;10.57;;;17.90;86.40;;;;;;5033591;29;20145;-72
2021/07/25 00:21:29;;;;;;;13.88;10.90;;;17.90;86.60;;;;;;5032101;29;20076;-71
2021/07/25 00:24:02;;;;;;;12.30;11.10;;;17.90;87.10;;;;;;5033493;29;20073;-71
2021/07/25 00:26:48;;;;;;;13.13;11.10;;;17.90;86.80;;;;;;5031479;29;20049;-70
2021/07/25 00:29:19;;;;;;;12.88;11.65;;;17.90;87.50;;;;;;5033002;29;20456;-71
2021/07/25 00:31:51;;;;;;;12.35;11.25;;;17.80;87.60;;;;;;5028856;29;20506;-70
2021/07/25 00:34:23;;;;;;;12.52;11.32;;;17.80;87.40;;;;;;5034520;29;20041;-71
2021/07/25 00:36:56;;;;;;;11.18;10.18;;;17.80;87.90;;;;;;5030405;29;20449;-70
2021/07/25 00:39:29;;;;;;;11.60;10.60;;;17.80;87.70;;;;;;5030721;29;20045;-71
2021/07/25 00:42:03;;;;;;;11.77;10.65;;;17.80;88.00;;;;;;5029896;29;20112;-72
2021/07/25 00:44:35;;;;;;;12.00;10.45;;;17.80;87.30;;;;;;5033506;29;20073;-72
2021/07/25 00:47:07;;;;;;;11.27;10.18;;;17.80;87.10;;;;;;5030620;29;20174;-72
2021/07/25 00:49:39;;;;;;;12.55;11.30;;;17.80;87.00;;;;;;5038533;29;20067;-71
2021/07/25 00:52:11;;;;;;;12.18;11.07;;;17.80;87.70;;;;;;5029742;29;20140;-73
2021/07/25 00:54:43;;;;;;;11.25;9.90;;;17.70;88.20;;;;;;5030034;29;20068;-72
2021/07/25 00:57:15;;;;;;;12.20;10.95;;;17.70;87.30;;;;;;5029644;29;20124;-70
2021/07/25 00:59:47;;;;;;;12.57;11.38;;;17.70;87.50;;;;;;5045651;29;20049;-72
2021/07/25 01:02:18;;;;;;;12.32;11.13;;;17.70;87.60;;;;;;5029134;29;20049;-72
2021/07/25 01:05:18;;;;;;;12.18;11.07;;;17.70;88.00;;;;;;5030749;29;20038;-73
2021/07/25 01:08:09;;;;;;;12.82;11.52;;;17.70;87.70;;;;;;5028026;29;20129;-73
2021/07/25 01:10:42;;;;;;;12.57;11.48;;;17.70;87.80;;;;;;5030238;29;20517;-72
2021/07/25 01:13:19;;;;;;;12.57;11.48;;;17.70;87.90;;;;;;5029940;29;20046;-74
2021/07/25 01:15:51;;;;;;;12.70;11.50;;;17.70;88.00;;;;;;5029888;29;20136;-72
2021/07/25 01:18:23;;;;;;;12.73;11.65;;;17.70;87.90;;;;;;5031217;29;20639;-73
2021/07/25 01:20:55;;;;;;;13.45;12.07;;;17.70;88.20;;;;;;5031954;29;20124;-72
2021/07/25 01:23:28;;;;;;;13.65;12.45;;;17.70;88.00;;;;;;5030106;29;20053;-72
2021/07/25 01:26:01;;;;;;;13.35;12.15;;;17.70;88.60;;;;;;5031298;29;20146;-75
2021/07/25 01:28:34;;;;;;;12.75;11.65;;;17.70;88.20;;;;;;5030726;29;20049;-74
2021/07/25 01:31:14;;;;;;;13.55;12.20;;;17.70;88.10;;;;;;5031354;29;20053;-73
2021/07/25 01:33:48;;;;;;;14.23;12.93;;;17.70;87.90;;;;;;5028508;29;20051;-72
2021/07/25 01:36:20;;;;;;;13.55;12.23;;;17.70;88.80;;;;;;5044264;29;20295;-72
2021/07/25 01:38:53;;;;;;;14.30;12.98;;;17.70;89.30;;;;;;5030991;29;20096;-72
2021/07/25 01:41:25;;;;;;;14.10;12.63;;;17.70;89.80;;;;;;5032788;29;20072;-72
2021/07/25 01:43:57;;;;;;;14.13;12.90;;;17.70;89.70;;;;;;5029358;29;20583;-72
2021/07/25 01:46:29;;;;;;;13.30;12.20;;;17.70;89.00;;;;;;5030336;29;20105;-72
2021/07/25 01:49:01;;;;;;;13.25;12.05;;;17.70;88.90;;;;;;5031457;29;20045;-71
2021/07/25 01:51:34;;;;;;;14.15;12.85;;;17.80;88.90;;;;;;5031986;29;20073;-73
2021/07/25 01:54:06;;;;;;;15.35;13.85;;;17.60;89.70;;;;;;5031813;29;20726;-72
2021/07/25 01:56:38;;;;;;;15.18;13.75;;;17.60;90.00;;;;;;5027979;29;20106;-74
2021/07/25 01:59:10;;;;;;;15.52;14.23;;;17.60;89.90;;;;;;5031998;29;20608;-75
2021/07/25 02:01:42;;;;;;;13.75;12.55;;;17.60;89.70;;;;;;5028741;29;20126;-74
2021/07/25 02:04:14;;;;;;;14.55;13.35;;;17.70;89.50;;;;;;5031731;29;20611;-73
2021/07/25 02:06:46;;;;;;;15.43;14.02;;;17.60;89.40;;;;;;5031784;29;20816;-75
2021/07/25 02:09:17;;;;;;;14.30;13.00;;;17.70;89.10;;;;;;5031604;29;20053;-74
2021/07/25 02:11:49;;;;;;;15.43;13.93;;;17.70;88.80;;;;;;5028459;29;20152;-73
2021/07/25 02:14:21;;;;;;;15.10;13.70;;;17.70;88.90;;;;;;5030396;29;20049;-74
2021/07/25 02:16:53;;;;;;;14.77;13.25;;;17.70;88.50;;;;;;5030627;29;20046;-74
2021/07/25 02:19:25;;;;;;;14.30;13.10;;;17.70;88.60;;;;;;5029504;29;20132;-72
2021/07/25 02:21:57;;;;;;;13.88;12.73;;;17.80;88.10;;;;;;5030369;29;20131;-73
2021/07/25 02:24:29;;;;;;;14.43;12.95;;;17.80;88.00;;;;;;5030143;29;20077;-73
2021/07/25 02:27:01;;;;;;;15.23;13.95;;;17.80;88.40;;;;;;5029260;29;20524;-74
2021/07/25 02:29:33;;;;;;;14.30;13.15;;;17.80;88.30;;;;;;5029739;29;20112;-72
2021/07/25 02:32:06;;;;;;;13.90;12.60;;;17.80;88.20;;;;;;5030944;29;20718;-74
2021/07/25 02:34:40;;;;;;;14.23;12.93;;;17.90;87.60;;;;;;5014064;29;20061;-72
2021/07/25 02:37:14;;;;;;;14.65;13.45;;;17.90;87.60;;;;;;5026682;29;20098;-73
2021/07/25 02:39:46;;;;;;;15.32;14.00;;;17.90;88.30;;;;;;5028563;29;20112;-72
2021/07/25 02:42:18;;;;;;;14.63;13.32;;;17.90;89.10;;;;;;5028987;29;20055;-72
2021/07/25 02:44:50;;;;;;;14.95;13.65;;;17.90;88.90;;;;;;5027554;29;20133;-73
2021/07/25 02:47:22;;;;;;;15.63;14.23;;;17.80;88.80;;;;;;5029053;29;20140;-72
2021/07/25 02:49:54;;;;;;;14.70;13.50;;;17.80;89.00;;;;;;5028994;29;20125;-72
2021/07/25 02:52:26;;;;;;;15.15;13.73;;;17.80;88.80;;;;;;5032576;29;20109;-73
2021/07/25 02:54:58;;;;;;;14.43;13.20;;;17.80;89.00;;;;;;5027972;29;20701;-71
2021/07/25 02:57:29;;;;;;;14.68;13.48;;;17.80;88.50;;;;;;5026500;29;20051;-71
2021/07/25 03:00:01;;;;;;;14.95;13.75;;;17.90;88.40;;;;;;5029588;29;20116;-73
2021/07/25 03:02:35;;;;;;;14.68;13.27;;;17.90;89.00;;;;;;5012659;29;20129;-72
2021/07/25 03:05:08;;;;;;;14.93;13.63;;;17.90;88.40;;;;;;5029209;29;20132;-72
2021/07/25 03:07:41;;;;;;;14.73;13.32;;;17.90;88.80;;;;;;5028983;29;20081;-71
2021/07/25 03:10:13;;;;;;;15.05;13.68;;;17.90;89.20;;;;;;5030329;29;20133;-71
2021/07/25 03:12:45;;;;;;;14.32;13.13;;;17.80;89.10;;;;;;5026239;29;20078;-73
2021/07/25 03:15:17;;;;;;;14.43;13.15;;;17.70;89.60;;;;;;5035233;29;20156;-72
2021/07/25 03:17:49;;;;;;;15.55;14.13;;;17.70;89.80;;;;;;5028590;29;20034;-71
2021/07/25 03:20:21;;;;;;;14.45;13.05;;;17.60;89.50;;;;;;5030086;29;20049;-72
2021/07/25 03:22:53;;;;;;;15.18;13.77;;;17.60;88.80;;;;;;5027842;29;20057;-72
2021/07/25 03:25:25;;;;;;;13.98;12.82;;;17.70;88.90;;;;;;5032212;29;20137;-72
2021/07/25 03:27:57;;;;;;;15.48;13.98;;;17.70;89.30;;;;;;5026419;29;20171;-73
2021/07/25 03:30:29;;;;;;;14.30;13.10;;;17.70;89.00;;;;;;5028056;29;20076;-72
2021/07/25 03:33:01;;;;;;;14.73;13.43;;;17.70;89.00;;;;;;5028861;29;20149;-72
2021/07/25 03:35:35;;;;;;;14.48;13.18;;;17.70;88.60;;;;;;5028810;29;20124;-74
2021/07/25 03:38:07;;;;;;;14.98;13.68;;;17.70;88.70;;;;;;5028235;29;20107;-73
2021/07/25 03:40:42;;;;;;;15.07;13.63;;;17.70;88.50;;;;;;5027916;29;20065;-72
2021/07/25 03:43:14;;;;;;;15.55;14.15;;;17.70;88.40;;;;;;5029393;29;20065;-73
2021/07/25 03:45:47;;;;;;;14.60;13.25;;;17.70;88.80;;;;;;5031325;29;20090;-73
2021/07/25 03:48:20;;;;;;;14.50;13.10;;;17.70;89.30;;;;;;5027530;29;20843;-73
2021/07/25 03:50:53;;;;;;;15.23;13.88;;;17.70;88.30;;;;;;5025755;29;20129;-73
2021/07/25 03:53:26;;;;;;;15.35;13.98;;;17.70;88.50;;;;;;5025616;29;20085;-72
2021/07/25 03:55:57;;;;;;;14.82;13.30;;;17.70;89.10;;;;;;5028546;29;20466;-72
2021/07/25 03:58:29;;;;;;;14.75;13.55;;;17.60;89.00;;;;;;5027550;29;20070;-73
2021/07/25 04:01:01;;;;;;;15.35;14.15;;;17.60;89.40;;;;;;5029694;29;20131;-73
2021/07/25 04:03:34;;;;;;;15.20;14.00;;;17.60;89.30;;;;;;5029034;29;20247;-72
2021/07/25 04:06:06;;;;;;;15.30;13.98;;;17.60;89.00;;;;;;5029132;29;20056;-71
2021/07/25 04:08:38;;;;;;;14.93;13.73;;;17.60;89.60;;;;;;5026420;29;20460;-71
2021/07/25 04:11:19;;;;;;;15.02;13.55;;;17.60;89.20;;;;;;5026901;29;20077;-70
2021/07/25 04:13:50;;;;;;;15.20;13.90;;;17.60;89.60;;;;;;5027072;29;20049;-70
2021/07/25 04:16:22;;;;;;;14.23;13.02;;;17.60;89.70;;;;;;5026535;29;20576;-70
2021/07/25 04:18:54;;;;;;;15.15;13.88;;;17.50;89.70;;;;;;5029289;29;20535;-70
2021/07/25 04:21:26;;;;;;;15.18;13.75;;;17.60;89.90;;;;;;5030237;29;20072;-70
2021/07/25 04:23:58;;;;;;;15.43;14.13;;;17.60;90.10;;;;;;5040965;29;20124;-70
2021/07/25 04:26:30;;;;;;;15.60;14.10;;;17.50;90.20;;;;;;5030984;29;20605;-72
2021/07/25 04:29:03;;;;;;;15.70;14.38;;;17.50;90.30;;;;;;5033632;29;20431;-71
2021/07/25 04:31:35;;;;;;;15.18;13.88;;;17.50;90.40;;;;;;5031624;29;20045;-70
2021/07/25 04:34:08;;;;;;;15.82;14.52;;;17.50;91.00;;;;;;5031135;29;20049;-71
2021/07/25 04:36:42;;;;;;;16.33;14.82;;;17.50;91.00;;;;;;5032078;29;20053;-73
2021/07/25 04:39:14;;;;;;;16.05;14.60;;;17.50;91.10;;;;;;5031275;29;20045;-72
2021/07/25 04:41:52;;;;;;;15.35;14.05;;;17.60;90.80;;;;;;5032371;29;20129;-70
2021/07/25 04:44:31;;;;;;;15.43;14.15;;;17.60;90.90;;;;;;5033937;29;20129;-73
2021/07/25 04:47:06;;;;;;;15.40;14.18;;;17.60;90.60;;;;;;5032162;29;20054;-72
2021/07/25 04:49:48;;;;;;;16.13;14.63;;;17.70;89.80;;;;;;5034925;29;20066;-72
2021/07/25 04:52:22;;;;;;;16.00;14.77;;;17.80;89.90;;;;;;5030612;29;20049;-72
2021/07/25 04:54:58;;;;;;;16.55;15.13;;;17.80;91.10;;;;;;5028083;29;20098;-71
2021/07/25 04:57:35;;;;;;;16.05;14.75;;;17.70;91.10;;;;;;5030947;29;20053;-70
2021/07/25 05:00:11;;;;;;;16.30;14.80;;;17.70;90.90;;;;;;5029147;29;20532;-71
2021/07/25 05:02:43;;;;;;;16.40;15.00;;;17.80;90.60;;;;;;5030259;29;20179;-72
2021/07/25 05:05:16;;;;;;;16.63;14.93;;;17.90;90.70;;;;;;5032612;29;20049;-73
2021/07/25 05:07:49;;;;;;;15.77;14.48;;;17.90;90.50;;;;;;5030824;29;20113;-72
2021/07/25 05:10:21;;;;;;;17.17;15.70;;;18.00;90.40;;;;;;5028485;29;20048;-72
2021/07/25 05:13:07;;;;;;;15.95;14.65;;;18.10;90.90;;;;;;5030008;29;20084;-72
2021/07/25 05:15:45;;;;;;;17.52;15.82;;;18.10;90.40;;;;;;5033966;29;20145;-72
2021/07/25 05:18:27;;;;;;;16.38;15.07;;;18.20;90.10;;;;;;5030564;29;20045;-71
2021/07/25 05:21:26;;;;;;;17.08;15.52;;;18.30;90.60;;;;;;5031254;29;20097;-72
2021/07/25 05:24:02;;;;;;;16.55;15.23;;;18.30;90.60;;;;;;5030161;29;20121;-72
2021/07/25 05:26:35;;;;;;;16.13;14.90;;;18.30;90.40;;;;;;5029743;29;20105;-73
2021/07/25 05:29:09;;;;;;;17.00;15.60;;;18.30;90.00;;;;;;5031844;29;20146;-72
2021/07/25 05:31:41;;;;;;;16.35;15.00;;;18.20;89.60;;;;;;5032425;29;20061;-73
2021/07/25 05:34:13;;;;;;;17.05;15.65;;;18.10;90.20;;;;;;5031320;29;20046;-74
2021/07/25 05:36:45;;;;;;;17.80;16.30;;;18.20;90.00;;;;;;5029733;29;20536;-73
2021/07/25 05:39:18;;;;;;;16.88;15.48;;;18.10;90.50;;;;;;5033141;29;20094;-75
2021/07/25 05:41:50;;;;;;;17.60;16.02;;;18.10;90.20;;;;;;5031057;29;20053;-72
2021/07/25 05:44:22;;;;;;;17.45;15.98;;;18.10;90.40;;;;;;5035073;29;21011;-72
2021/07/25 05:46:54;;;;;;;17.40;15.85;;;18.20;90.10;;;;;;5031706;29;20168;-71
2021/07/25 05:49:27;;;;;;;18.38;16.90;;;18.20;90.00;;;;;;5029274;29;20048;-73
2021/07/25 05:51:59;;;;;;;18.52;16.92;;;18.30;90.90;;;;;;5031838;29;20084;-74
2021/07/25 05:54:31;;;;;;;18.52;17.05;;;18.30;90.80;;;;;;5032637;29;20033;-74
2021/07/25 05:57:03;;;;;;;18.25;16.65;;;18.30;91.00;;;;;;5026959;29;20076;-74
2021/07/25 05:59:35;;;;;;;18.23;16.73;;;18.10;90.90;;;;;;5029608;29;20105;-73
2021/07/25 06:02:07;;;;;;;18.48;16.88;;;18.10;91.10;;;;;;5029201;29;20061;-74
2021/07/25 06:04:39;;;;;;;18.38;16.83;;;18.10;91.40;;;;;;5032919;29;20139;-72
2021/07/25 06:07:10;;;;;;;17.17;15.68;;;18.20;91.50;;;;;;5028603;29;20132;-72
2021/07/25 06:09:42;;;;;;;18.25;16.63;;;18.20;91.40;;;;;;5032761;29;20482;-72
2021/07/25 06:12:16;;;;;;;18.00;16.50;;;18.30;91.20;;;;;;5029439;29;20170;-72
2021/07/25 06:14:48;;;;;;;17.85;16.25;;;18.30;90.60;;;;;;5046432;29;20045;-71
2021/07/25 06:17:19;;;;;;;17.55;16.05;;;18.40;90.80;;;;;;5033940;29;20045;-71
2021/07/25 06:19:51;;;;;;;17.70;16.30;;;18.40;90.40;;;;;;5035078;29;20045;-72
2021/07/25 06:22:23;;;;;;;17.48;15.88;;;18.50;90.80;;;;;;5031661;29;20050;-71
2021/07/25 06:24:56;;;;;;;17.63;16.20;;;18.40;90.70;;;;;;5031942;29;20049;-70
2021/07/25 06:27:27;;;;;;;17.70;16.23;;;18.50;90.60;;;;;;5042664;29;20048;-73
2021/07/25 06:29:59;;;;;;;17.42;16.02;;;18.50;90.30;;;;;;5027721;29;20053;-73
2021/07/25 06:32:51;;;;;;;17.58;16.17;;;18.70;90.20;;;;;;5026612;29;20049;-72
2021/07/25 06:35:24;;;;;;;17.77;16.38;;;18.90;89.70;;;;;;5026257;29;20045;-73
2021/07/25 06:38:02;;;;;;;18.00;16.52;;;18.90;89.50;;;;;;5029747;29;20114;-73
2021/07/25 06:40:36;;;;;;;18.08;16.48;;;19.00;89.10;;;;;;5028759;29;20385;-73
2021/07/25 06:43:08;;;;;;;17.83;16.38;;;19.10;88.70;;;;;;5029077;29;20109;-72
2021/07/25 06:45:40;;;;;;;17.80;16.33;;;19.10;88.60;;;;;;5026983;29;20128;-73
2021/07/25 06:48:26;;;;;;;17.60;16.00;;;19.10;89.40;;;;;;5029383;29;20057;-72
2021/07/25 06:51:00;;;;;;;18.17;16.67;;;19.20;89.10;;;;;;5028444;29;20045;-72
2021/07/25 06:53:33;;;;;;;18.13;16.52;;;19.20;89.10;;;;;;5035277;29;20049;-73
2021/07/25 06:56:06;;;;;;;17.30;15.88;;;19.10;89.10;;;;;;5042233;29;20424;-72
2021/07/25 06:58:39;;;;;;;18.10;16.38;;;19.20;89.30;;;;;;5028961;29;20471;-72
2021/07/25 07:01:11;;;;;;;18.02;16.40;;;19.20;89.30;;;;;;5028435;29;20077;-72
2021/07/25 07:03:44;;;;;;;20.80;19.02;;;19.20;90.10;;;;;;5029049;29;20057;-72
2021/07/25 07:06:16;;;;;;;18.25;16.85;;;19.30;90.20;;;;;;5030742;29;20144;-72
2021/07/25 07:08:47;;;;;;;19.13;17.50;;;19.30;89.00;;;;;;5027347;29;20060;-72
2021/07/25 07:11:26;;;;;;;19.08;17.58;;;19.40;90.00;;;;;;5026965;29;20104;-72
2021/07/25 07:13:59;;;;;;;18.55;16.80;;;19.50;90.10;;;;;;5034577;29;20033;-73
2021/07/25 07:16:32;;;;;;;18.38;16.77;;;19.50;89.30;;;;;;5043580;29;20045;-74
2021/07/25 07:19:04;;;;;;;18.45;16.95;;;19.50;88.70;;;;;;5033417;29;20049;-73
2021/07/25 07:21:36;;;;;;;19.45;17.63;;;19.50;88.60;;;;;;5044231;29;20053;-73
2021/07/25 07:24:08;;;;;;;18.80;17.17;;;19.50;88.40;;;;;;5028826;29;20109;-73
2021/07/25 07:26:40;;;;;;;19.00;17.40;;;19.60;88.80;;;;;;5037001;29;20085;-73
2021/07/25 07:29:11;;;;;;;19.08;17.48;;;19.60;88.20;;;;;;5030145;29;20092;-72
2021/07/25 07:31:43;;;;;;;19.35;17.50;;;19.60;89.30;;;;;;5034372;29;20057;-72
2021/07/25 07:34:15;;;;;;;19.90;18.30;;;19.70;88.80;;;;;;5029971;29;20756;-72
2021/07/25 07:36:47;;;;;;;19.10;17.40;;;19.70;89.30;;;;;;5027922;29;20128;-73
2021/07/25 07:39:19;;;;;;;18.30;16.80;;;19.80;89.10;;;;;;5032224;29;20526;-73
2021/07/25 07:41:51;;;;;;;19.05;17.42;;;19.80;89.40;;;;;;5044260;29;20069;-73
2021/07/25 07:44:23;;;;;;;19.17;17.67;;;19.90;89.00;;;;;;5044365;29;20064;-73
2021/07/25 07:46:55;;;;;;;19.45;17.85;;;19.90;89.20;;;;;;5026796;29;20515;-72
2021/07/25 07:49:27;;;;;;;18.83;17.23;;;19.90;88.70;;;;;;5025239;29;20053;-73
2021/07/25 07:51:59;;;;;;;19.13;17.42;;;20.00;88.00;;;;;;5028238;29;20475;-73
2021/07/25 07:54:31;;;;;;;19.75;18.02;;;20.10;88.10;;;;;;5027737;29;20044;-73
2021/07/25 07:57:03;;;;;;;18.67;17.27;;;20.20;87.90;;;;;;5027943;29;20052;-74
2021/07/25 07:59:35;;;;;;;20.33;18.52;;;20.30;87.40;;;;;;5033304;29;20040;-74
2021/07/25 08:02:07;;;;;;;20.17;18.67;;;20.50;86.00;;;;;;5033153;29;20160;-71
2021/07/25 08:04:39;;;;;;;19.70;18.00;;;20.60;86.70;;;;;;5033001;29;20061;-72
2021/07/25 08:07:11;;;;;;;19.95;18.25;;;20.70;86.60;;;;;;5029254;29;20064;-72
2021/07/25 08:09:43;;;;;;;18.75;17.15;;;20.80;86.30;;;;;;5033487;29;20112;-73
2021/07/25 08:12:15;;;;;;;18.98;17.45;;;20.80;85.50;;;;;;5032893;29;20583;-73
2021/07/25 08:14:47;;;;;;;19.45;17.95;;;20.80;84.80;;;;;;5035918;29;20037;-73
2021/07/25 08:17:19;;;;;;;18.35;16.75;;;20.80;84.80;;;;;;5030853;29;20056;-72
2021/07/25 08:19:51;;;;;;;18.20;16.70;;;20.90;84.50;;;;;;5039762;29;20042;-72
2021/07/25 08:22:23;;;;;;;17.92;16.58;;;20.80;85.00;;;;;;5037059;29;20128;-72
2021/07/25 08:24:55;;;;;;;18.20;16.60;;;20.70;84.60;;;;;;5031106;29;20127;-71
2021/07/25 08:27:27;;;;;;;18.00;16.50;;;20.70;85.30;;;;;;5030967;29;20076;-73
2021/07/25 08:29:59;;;;;;;18.48;16.88;;;20.70;85.70;;;;;;5032491;29;20949;-71
2021/07/25 08:32:31;;;;;;;18.08;16.58;;;20.80;85.50;;;;;;5035405;29;20144;-72
2021/07/25 08:35:03;;;;;;;18.75;17.15;;;20.80;85.30;;;;;;5035000;29;20073;-73
2021/07/25 08:37:35;;;;;;;18.23;16.73;;;20.90;85.40;;;;;;5030143;29;20112;-72
2021/07/25 08:40:08;;;;;;;18.23;16.63;;;20.90;85.00;;;;;;5030554;29;20449;-72
2021/07/25 08:43:01;;;;;;;18.25;16.70;;;20.90;85.20;;;;;;5038754;29;20072;-72
2021/07/25 08:45:35;;;;;;;18.35;16.80;;;21.00;84.80;;;;;;5031098;29;20077;-73
2021/07/25 08:48:16;;;;;;;19.02;17.27;;;21.00;85.00;;;;;;5032396;29;20969;-71
2021/07/25 08:51:03;;;;;;;18.90;17.23;;;21.00;85.90;;;;;;5032098;29;20048;-72
2021/07/25 08:53:37;;;;;;;18.60;16.95;;;21.10;84.90;;;;;;5031534;29;20057;-72
2021/07/25 08:56:11;;;;;;;18.55;17.02;;;21.10;82.80;;;;;;5031637;29;20049;-72
2021/07/25 08:58:46;;;;;;;19.25;17.67;;;21.00;83.00;;;;;;5029869;29;20132;-73
2021/07/25 09:01:19;;;;;;;18.52;17.02;;;20.90;83.00;;;;;;5033289;29;20042;-73
2021/07/25 09:03:52;;;;;;;19.17;17.48;;;21.00;83.40;;;;;;5032003;29;20049;-73
2021/07/25 09:06:29;;;;;;;19.40;17.67;;;21.00;84.30;;;;;;5032699;29;20431;-73
2021/07/25 09:09:02;;;;;;;19.65;17.85;;;21.10;85.00;;;;;;5030046;29;20507;-74
2021/07/25 09:11:36;;;;;;;18.48;16.92;;;21.10;85.10;;;;;;5031209;29;20130;-72
2021/07/25 09:14:08;;;;;;;18.88;17.30;;;21.20;84.50;;;;;;5031547;29;20135;-72
2021/07/25 09:16:40;;;;;;;18.92;17.35;;;21.30;83.90;;;;;;5036158;29;20448;-72
2021/07/25 09:19:12;;;;;;;18.15;16.75;;;21.20;84.20;;;;;;5028434;29;20068;-73
2021/07/25 09:21:52;;;;;;;18.63;17.13;;;21.30;84.10;;;;;;5031092;29;20076;-74
2021/07/25 09:24:31;;;;;;;18.42;16.73;;;21.30;84.00;;;;;;5033215;29;20495;-72
2021/07/25 09:27:05;;;;;;;18.90;17.40;;;21.30;84.40;;;;;;5032120;29;20538;-74
2021/07/25 09:29:37;;;;;;;18.92;17.10;;;21.30;84.70;;;;;;5030538;29;20060;-71
2021/07/25 09:32:10;;;;;;;18.60;17.10;;;21.30;84.60;;;;;;5030510;29;20133;-72
2021/07/25 09:34:44;;;;;;;19.55;17.95;;;21.20;84.70;;;;;;5031842;29;20106;-73
2021/07/25 09:37:21;;;;;;;18.98;17.48;;;21.30;84.50;;;;;;5028551;29;20045;-74
2021/07/25 09:39:55;;;;;;;18.70;17.20;;;21.30;84.40;;;;;;5031984;29;20046;-72
2021/07/25 09:42:31;;;;;;;20.15;18.33;;;21.20;84.50;;;;;;5030910;29;20133;-73
2021/07/25 09:45:04;;;;;;;18.17;16.75;;;21.20;84.60;;;;;;5029641;29;20060;-74
2021/07/25 09:47:42;;;;;;;18.90;17.33;;;21.30;84.40;;;;;;5027175;29;20124;-72
2021/07/25 09:50:26;;;;;;;18.75;17.05;;;21.30;84.40;;;;;;5032173;29;20343;-71
2021/07/25 09:53:00;;;;;;;19.10;17.40;;;21.40;84.30;;;;;;5031832;29;20053;-73
2021/07/25 09:55:32;;;;;;;18.55;16.92;;;21.40;84.00;;;;;;5034407;29;20072;-74
2021/07/25 09:58:05;;;;;;;19.45;17.92;;;21.40;83.70;;;;;;5028464;29;20049;-74
2021/07/25 10:00:47;;;;;;;19.42;17.83;;;21.40;83.60;;;;;;5032577;29;20049;-74
2021/07/25 10:03:21;;;;;;;19.95;18.08;;;21.40;83.30;;;;;;5030367;29;20960;-74
2021/07/25 10:05:53;;;;;;;19.98;18.17;;;21.40;83.30;;;;;;5029525;29;20053;-72
2021/07/25 10:08:25;;;;;;;18.98;17.58;;;21.40;84.30;;;;;;5028350;29;20044;-74
2021/07/25 10:11:00;;;;;;;19.83;18.33;;;21.40;83.60;;;;;;5044075;29;20783;-72
2021/07/25 10:13:34;;;;;;;18.83;17.10;;;21.40;83.60;;;;;;5030352;29;20515;-73
2021/07/25 10:16:06;;;;;;;18.52;17.02;;;21.40;83.90;;;;;;5031992;29;20054;-72
2021/07/25 10:18:40;;;;;;;19.40;17.77;;;21.40;83.60;;;;;;5029710;29;20675;-74
2021/07/25 10:21:13;;;;;;;18.88;17.27;;;21.40;83.40;;;;;;5031609;29;20045;-73
2021/07/25 10:23:52;;;;;;;19.98;18.23;;;21.50;82.70;;;;;;5028554;29;20415;-73
2021/07/25 10:26:25;;;;;;;19.45;17.85;;;21.40;81.80;;;;;;5031030;29;20057;-72
2021/07/25 10:28:58;;;;;;;19.38;17.83;;;21.30;82.50;;;;;;5031326;29;20037;-73
2021/07/25 10:31:33;;;;;;;19.77;17.98;;;21.40;83.50;;;;;;5034591;29;20129;-73
2021/07/25 10:34:06;;;;;;;19.27;17.58;;;21.50;83.90;;;;;;5030989;29;20076;-72
2021/07/25 10:36:40;;;;;;;19.88;18.17;;;21.50;83.80;;;;;;5028960;29;20090;-74
2021/07/25 10:39:12;;;;;;;18.70;17.20;;;21.60;84.10;;;;;;5037413;29;20145;-71
2021/07/25 10:41:47;;;;;;;20.00;18.30;;;21.70;83.70;;;;;;5031310;29;20060;-72
2021/07/25 10:44:20;;;;;;;18.75;17.30;;;21.70;84.10;;;;;;5030691;29;20563;-72
2021/07/25 10:47:17;;;;;;;19.75;18.15;;;21.80;83.80;;;;;;5029179;29;20080;-72
2021/07/25 10:50:16;;;;;;;18.55;17.13;;;21.80;83.20;;;;;;5033919;29;20109;-73
2021/07/25 10:52:53;;;;;;;19.02;17.42;;;21.90;83.30;;;;;;5030679;29;20491;-72
2021/07/25 10:55:38;;;;;;;19.10;17.58;;;21.90;82.60;;;;;;5029458;29;20086;-72
2021/07/25 10:58:15;;;;;;;20.20;18.50;;;22.00;82.50;;;;;;5031026;29;20073;-72
2021/07/25 11:00:55;;;;;;;19.77;18.17;;;22.00;81.60;;;;;;5030298;29;20125;-72
2021/07/25 11:03:30;;;;;;;20.63;18.92;;;22.10;82.30;;;;;;5031634;29;20099;-72
2021/07/25 11:06:05;;;;;;;20.42;18.73;;;22.10;82.20;;;;;;5030615;29;20046;-71
2021/07/25 11:08:46;;;;;;;19.73;18.13;;;22.20;82.40;;;;;;5029908;29;20377;-72
2021/07/25 11:11:39;;;;;;;20.33;18.65;;;22.30;81.90;;;;;;5028580;29;20106;-73
2021/07/25 11:14:11;;;;;;;20.58;18.88;;;22.40;81.20;;;;;;5046510;29;20106;-72
2021/07/25 11:16:45;;;;;;;18.80;17.30;;;22.50;81.10;;;;;;5031860;29;20093;-71
2021/07/25 11:19:17;;;;;;;20.48;18.65;;;22.60;79.10;;;;;;5027435;29;20073;-72
2021/07/25 11:21:55;;;;;;;19.33;17.65;;;22.70;78.70;;;;;;5031243;29;20045;-71
2021/07/25 11:24:28;;;;;;;19.27;17.77;;;22.80;80.20;;;;;;5018556;29;20144;-72
2021/07/25 11:27:04;;;;;;;20.10;18.48;;;23.00;80.40;;;;;;5031612;29;20419;-73
2021/07/25 11:29:37;;;;;;;19.08;17.60;;;23.10;79.70;;;;;;5028851;29;20511;-71
2021/07/25 11:32:37;;;;;;;19.38;17.90;;;23.20;78.30;;;;;;5030029;29;20132;-71
2021/07/25 11:35:09;;;;;;;18.67;17.27;;;23.30;78.10;;;;;;5027764;29;20164;-70
2021/07/25 11:37:42;;;;;;;18.67;17.27;;;23.40;76.30;;;;;;5031468;29;20121;-72
2021/07/25 11:40:14;;;;;;;18.63;17.23;;;23.50;76.10;;;;;;5033696;29;20058;-71
2021/07/25 11:42:46;;;;;;;18.88;17.35;;;23.70;75.90;;;;;;5031451;29;20129;-71
2021/07/25 11:45:27;;;;;;;18.92;17.48;;;23.80;75.00;;;;;;5044179;29;20164;-71
2021/07/25 11:48:21;;;;;;;18.77;17.48;;;24.00;73.70;;;;;;5031764;29;20077;-70
2021/07/25 11:50:53;;;;;;;17.95;16.55;;;24.10;74.30;;;;;;5031668;29;20729;-70
2021/07/25 11:53:41;;;;;;;18.88;17.42;;;24.10;75.00;;;;;;5033680;29;20783;-71
2021/07/25 11:56:13;;;;;;;18.48;17.08;;;24.10;73.90;;;;;;5034369;29;20164;-71
2021/07/25 11:59:06;;;;;;;18.50;17.00;;;24.20;71.80;;;;;;5031287;29;20053;-71
2021/07/25 12:01:38;;;;;;;17.92;16.60;;;24.20;73.60;;;;;;5032556;29;20168;-72
2021/07/25 12:04:17;;;;;;;17.35;15.95;;;24.20;73.10;;;;;;5032876;29;20565;-71
2021/07/25 12:07:11;;;;;;;18.00;16.58;;;24.20;73.20;;;;;;5035445;29;20145;-71
2021/07/25 12:09:48;;;;;;;18.02;16.67;;;24.10;73.30;;;;;;5030109;29;20436;-72
2021/07/25 12:12:26;;;;;;;18.23;16.70;;;24.10;73.00;;;;;;5031964;29;20080;-73
2021/07/25 12:15:00;;;;;;;17.52;16.23;;;24.00;73.30;;;;;;5029157;29;20072;-72
2021/07/25 12:17:52;;;;;;;18.10;16.73;;;24.00;74.20;;;;;;5028288;29;20588;-72
2021/07/25 12:20:27;;;;;;;17.08;15.80;;;23.90;74.30;;;;;;5030517;29;20693;-72
2021/07/25 12:23:06;;;;;;;17.65;16.30;;;23.90;74.20;;;;;;5032924;29;20483;-72
2021/07/25 12:25:47;;;;;;;17.77;16.38;;;23.90;74.00;;;;;;5030050;29;20156;-72
2021/07/25 12:28:24;;;;;;;19.15;17.63;;;23.90;72.80;;;;;;5030565;29;20132;-72
2021/07/25 12:30:57;;;;;;;17.52;16.17;;;24.00;73.60;;;;;;5030817;29;20141;-72
2021/07/25 12:33:33;;;;;;;18.27;16.77;;;24.00;73.60;;;;;;5032156;29;20100;-72
2021/07/25 12:36:13;;;;;;;17.83;16.42;;;24.00;72.90;;;;;;5031127;29;20486;-72
2021/07/25 12:38:45;;;;;;;17.38;16.05;;;24.00;73.90;;;;;;5030531;29;20081;-72
2021/07/25 12:41:17;;;;;;;17.42;16.13;;;23.90;72.90;;;;;;5028974;29;20046;-73
2021/07/25 12:44:07;;;;;;;16.67;15.43;;;23.80;73.70;;;;;;5030279;29;20077;-72
2021/07/25 12:46:56;;;;;;;17.17;15.57;;;23.70;71.90;;;;;;5027849;29;20798;-70
2021/07/25 12:49:28;;;;;;;17.48;16.08;;;23.70;72.90;;;;;;5043158;29;20060;-70
2021/07/25 12:52:00;;;;;;;18.33;16.80;;;23.60;72.60;;;;;;5034885;29;20168;-70
2021/07/25 12:54:31;;;;;;;17.42;16.13;;;23.60;73.20;;;;;;5028411;29;20132;-71
2021/07/25 12:57:03;;;;;;;16.98;15.57;;;23.60;72.90;;;;;;5028081;29;20049;-71
2021/07/25 12:59:35;;;;;;;17.77;16.40;;;23.60;71.90;;;;;;5029812;29;20076;-72
2021/07/25 13:05:02;;;;;;;17.67;16.27;;;23.90;71.90;;;;;;5033515;29;20690;-71
2021/07/25 13:07:33;;;;;;;17.75;16.35;;;24.00;71.70;;;;;;5028245;29;20171;-73